createdAt,value
2022-10-05T00:00:51.045Z,17.35
2022-10-05T00:03:37.322Z,17.42
2022-10-05T00:06:05.607Z,17.52
2022-10-05T00:08:36.564Z,17.55
2022-10-05T00:11:07.644Z,16.42
2022-10-05T00:13:35.737Z,16.08
2022-10-05T00:16:11.555Z,16.27
2022-10-05T00:18:40.036Z,15.27
2022-10-05T00:21:27.061Z,15.57
2022-10-05T00:23:57.670Z,14.38
2022-10-05T00:26:27.629Z,15.95
2022-10-05T00:28:55.386Z,14.57
2022-10-05T00:31:32.228Z,13.93
2022-10-05T00:33:59.555Z,16.02
2022-10-05T00:36:27.406Z,16.13
2022-10-05T00:38:55.213Z,14.93
2022-10-05T00:41:50.137Z,14.60
2022-10-05T00:44:32.442Z,17.60
2022-10-05T00:47:24.710Z,25.05
2022-10-05T00:50:07.103Z,30.88
2022-10-05T00:53:01.825Z,22.05
2022-10-05T00:55:38.095Z,16.92
2022-10-05T00:58:11.514Z,15.57
2022-10-05T01:01:01.403Z,14.63
2022-10-05T01:04:07.329Z,16.95
2022-10-05T01:06:56.214Z,14.65
2022-10-05T01:09:33.426Z,14.85
2022-10-05T01:12:07.639Z,16.83
2022-10-05T01:14:53.506Z,16.15
2022-10-05T01:17:41.929Z,14.13
2022-10-05T01:20:27.639Z,15.55
2022-10-05T01:23:13.372Z,13.02
2022-10-05T01:25:49.475Z,15.48
2022-10-05T01:28:22.733Z,16.35
2022-10-05T01:30:57.800Z,16.73
2022-10-05T01:33:46.444Z,14.77
2022-10-05T01:36:34.755Z,16.75
2022-10-05T01:39:03.857Z,19.27
2022-10-05T01:41:55.772Z,16.50
2022-10-05T01:44:44.603Z,18.83
2022-10-05T01:47:21.943Z,17.65
2022-10-05T01:50:34.759Z,15.43
2022-10-05T01:53:15.665Z,17.92
2022-10-05T01:56:01.213Z,16.98
2022-10-05T01:58:55.682Z,14.88
2022-10-05T02:01:49.868Z,16.15
2022-10-05T02:04:59.825Z,15.23
2022-10-05T02:10:00.831Z,15.88
2022-10-05T02:12:34.972Z,20.38
2022-10-05T02:15:24.291Z,14.70
2022-10-05T02:17:59.409Z,17.50
2022-10-05T02:20:32.062Z,19.10
2022-10-05T02:23:10.485Z,19.27
2022-10-05T02:25:40.710Z,16.95
2022-10-05T02:28:12.744Z,19.73
2022-10-05T02:30:51.704Z,20.98
2022-10-05T02:33:38.888Z,17.15
2022-10-05T02:36:27.519Z,17.88
2022-10-05T02:39:13.179Z,19.05
2022-10-05T02:41:43.175Z,16.30
2022-10-05T02:44:33.877Z,20.38
2022-10-05T02:47:06.665Z,18.20
2022-10-05T02:49:46.470Z,18.60
2022-10-05T02:52:35.977Z,18.73
2022-10-05T02:56:02.658Z,18.23
2022-10-05T02:58:59.476Z,17.92
2022-10-05T03:01:38.873Z,17.77
2022-10-05T03:04:09.268Z,21.10
2022-10-05T03:07:07.128Z,21.55
2022-10-05T03:09:48.190Z,19.33
2022-10-05T03:12:29.514Z,20.33
2022-10-05T03:15:23.919Z,19.48
2022-10-05T03:18:19.690Z,19.25
2022-10-05T03:20:55.058Z,21.40
2022-10-05T03:24:10.271Z,23.02
2022-10-05T03:26:47.214Z,26.27
2022-10-05T03:29:58.630Z,19.95
2022-10-05T03:32:44.766Z,19.83
2022-10-05T03:35:34.750Z,21.38
2022-10-05T03:38:24.390Z,20.20
2022-10-05T03:41:08.691Z,22.17
2022-10-05T03:43:54.284Z,26.42
2022-10-05T03:46:43.086Z,23.35
2022-10-05T03:49:15.960Z,23.23
2022-10-05T03:51:51.441Z,21.20
2022-10-05T03:54:32.786Z,25.70
2022-10-05T03:57:25.967Z,24.83
2022-10-05T04:00:01.727Z,23.58
2022-10-05T04:02:41.451Z,17.85
2022-10-05T04:05:18.256Z,22.30
2022-10-05T04:07:52.112Z,24.67
2022-10-05T04:10:27.487Z,23.55
2022-10-05T04:13:03.001Z,18.77
2022-10-05T04:15:37.922Z,33.03
2022-10-05T04:18:11.552Z,22.77
2022-10-05T04:20:44.443Z,37.47
2022-10-05T04:23:40.442Z,26.70
2022-10-05T04:26:28.847Z,17.95
2022-10-05T04:29:11.927Z,28.13
2022-10-05T04:32:01.938Z,36.03
2022-10-05T04:34:53.865Z,20.33
2022-10-05T04:37:28.746Z,22.17
2022-10-05T04:40:17.712Z,16.80
2022-10-05T04:42:54.914Z,20.50
2022-10-05T04:45:40.923Z,16.90
2022-10-05T04:48:27.393Z,36.47
2022-10-05T04:51:16.091Z,17.67
2022-10-05T04:53:53.675Z,17.85
2022-10-05T04:56:36.399Z,22.95
2022-10-05T04:59:12.608Z,19.35
2022-10-05T05:01:52.073Z,19.10
2022-10-05T05:04:40.576Z,24.10
2022-10-05T05:07:38.421Z,24.38
2022-10-05T05:10:08.549Z,27.52
2022-10-05T05:12:51.042Z,20.35
2022-10-05T05:15:21.198Z,21.08
2022-10-05T05:18:13.526Z,34.08
2022-10-05T05:21:02.263Z,20.13
2022-10-05T05:23:54.561Z,18.55
2022-10-05T05:27:04.223Z,19.65
2022-10-05T05:29:58.344Z,20.73
2022-10-05T05:32:43.174Z,18.63
2022-10-05T05:35:25.517Z,23.83
2022-10-05T05:38:02.792Z,17.27
2022-10-05T05:40:39.515Z,21.58
2022-10-05T05:43:38.389Z,19.25
2022-10-05T05:46:30.132Z,23.90
2022-10-05T05:49:30.053Z,18.20
2022-10-05T05:52:05.427Z,22.17
2022-10-05T05:54:40.987Z,20.73
2022-10-05T05:57:21.654Z,18.88
2022-10-05T05:59:54.846Z,18.08
2022-10-05T06:02:29.132Z,31.92
2022-10-05T06:05:02.799Z,20.25
2022-10-05T06:07:31.944Z,22.38
2022-10-05T06:10:33.946Z,17.65
2022-10-05T06:13:15.343Z,20.92
2022-10-05T06:15:56.033Z,18.08
2022-10-05T06:18:24.826Z,17.35
2022-10-05T06:21:00.876Z,23.13
2022-10-05T06:23:39.107Z,24.20
2022-10-05T06:26:30.073Z,24.30
2022-10-05T06:29:04.032Z,20.02
2022-10-05T06:31:37.004Z,20.65
2022-10-05T06:34:18.853Z,23.23
2022-10-05T06:36:55.678Z,18.95
2022-10-05T06:39:44.224Z,19.50
2022-10-05T06:42:23.154Z,21.45
2022-10-05T06:45:10.016Z,17.30
2022-10-05T06:48:05.854Z,20.67
2022-10-05T06:51:09.976Z,19.20
2022-10-05T06:54:21.496Z,19.15
2022-10-05T06:57:38.051Z,20.15
2022-10-05T07:00:26.347Z,20.15
2022-10-05T07:03:08.597Z,24.45
2022-10-05T07:05:35.868Z,25.60
2022-10-05T07:08:16.140Z,17.85
2022-10-05T07:10:46.617Z,21.15
2022-10-05T07:13:23.540Z,19.58
2022-10-05T07:18:47.860Z,22.83
2022-10-05T07:21:27.760Z,16.88
2022-10-05T07:24:06.182Z,25.98
2022-10-05T07:27:00.905Z,19.95
2022-10-05T07:29:39.642Z,23.45
2022-10-05T07:32:34.835Z,22.50
2022-10-05T07:36:19.025Z,19.80
2022-10-05T07:38:58.700Z,16.35
2022-10-05T07:41:40.353Z,19.23
2022-10-05T07:44:33.386Z,23.00
2022-10-05T07:47:05.305Z,20.95
2022-10-05T07:49:43.310Z,17.98
2022-10-05T07:52:23.708Z,17.92
2022-10-05T07:55:13.031Z,19.50
2022-10-05T07:57:46.530Z,15.40
2022-10-05T08:00:18.828Z,15.43
2022-10-05T08:03:11.540Z,16.40
2022-10-05T08:05:42.441Z,22.48
2022-10-05T08:08:14.432Z,25.38
2022-10-05T08:11:07.355Z,29.48
2022-10-05T08:13:56.089Z,60.15
2022-10-05T08:16:28.398Z,17.13
2022-10-05T08:19:04.159Z,12.88
2022-10-05T08:21:45.425Z,14.27
2022-10-05T08:24:38.991Z,18.08
2022-10-05T08:27:15.128Z,23.88
2022-10-05T08:30:05.456Z,13.00
2022-10-05T08:32:46.693Z,11.68
2022-10-05T08:35:17.880Z,16.98
2022-10-05T08:37:46.267Z,18.00
2022-10-05T08:40:22.545Z,12.95
2022-10-05T08:43:08.710Z,12.88
2022-10-05T08:45:51.455Z,14.98
2022-10-05T08:48:57.213Z,10.70
2022-10-05T08:51:42.906Z,12.20
2022-10-05T08:54:25.431Z,10.60
2022-10-05T08:57:11.286Z,11.73
2022-10-05T08:59:47.547Z,10.98
2022-10-05T09:02:47.347Z,15.30
2022-10-05T09:05:44.874Z,19.83
2022-10-05T09:08:33.377Z,11.60
2022-10-05T09:11:46.210Z,14.38
2022-10-05T09:14:31.318Z,18.60
2022-10-05T09:17:01.445Z,11.13
2022-10-05T09:20:15.170Z,11.93
2022-10-05T09:22:51.406Z,14.70
2022-10-05T09:25:55.660Z,12.60
2022-10-05T09:28:34.544Z,12.45
2022-10-05T09:31:16.262Z,11.68
2022-10-05T09:34:26.029Z,18.75
2022-10-05T09:37:23.418Z,30.65
2022-10-05T09:40:35.869Z,12.00
2022-10-05T09:43:41.545Z,8.10
2022-10-05T09:46:27.888Z,10.07
2022-10-05T09:49:18.043Z,13.35
2022-10-05T09:52:09.106Z,13.68
2022-10-05T09:55:02.980Z,11.85
2022-10-05T09:57:33.236Z,9.13
2022-10-05T10:00:34.445Z,9.40
2022-10-05T10:03:39.320Z,11.35
2022-10-05T10:06:30.890Z,13.88
2022-10-05T10:09:46.592Z,11.90
2022-10-05T10:12:25.449Z,6.65
2022-10-05T10:15:11.755Z,6.68
2022-10-05T10:17:53.759Z,7.13
2022-10-05T10:20:39.885Z,9.68
2022-10-05T10:23:22.071Z,11.77
2022-10-05T10:26:39.982Z,11.93
2022-10-05T10:29:31.553Z,8.35
2022-10-05T10:32:32.900Z,48.03
2022-10-05T10:35:31.285Z,22.67
2022-10-05T10:38:17.551Z,16.50
2022-10-05T10:40:59.660Z,11.30
2022-10-05T10:43:45.866Z,30.05
2022-10-05T10:46:18.698Z,33.28
2022-10-05T10:49:03.176Z,13.38
2022-10-05T10:51:57.706Z,7.05
2022-10-05T10:54:37.318Z,7.65
2022-10-05T10:57:15.196Z,10.52
2022-10-05T10:59:54.244Z,9.35
2022-10-05T11:02:45.376Z,15.18
2022-10-05T11:05:24.896Z,8.13
2022-10-05T11:08:03.178Z,10.82
2022-10-05T11:10:43.122Z,10.05
2022-10-05T11:13:36.313Z,7.88
2022-10-05T11:16:15.844Z,8.00
2022-10-05T11:19:07.125Z,8.45
2022-10-05T11:21:46.212Z,10.90
2022-10-05T11:25:07.660Z,7.45
2022-10-05T11:27:46.849Z,7.65
2022-10-05T11:30:23.125Z,9.98
2022-10-05T11:32:56.831Z,7.50
2022-10-05T11:36:19.558Z,6.85
2022-10-05T11:39:08.008Z,7.60
2022-10-05T11:41:53.941Z,4.78
2022-10-05T11:44:52.289Z,7.30
2022-10-05T11:47:27.998Z,8.10
2022-10-05T11:50:16.332Z,7.97
2022-10-05T11:52:52.294Z,8.25
2022-10-05T11:55:37.517Z,8.40
2022-10-05T11:58:17.231Z,6.43
2022-10-05T12:00:50.281Z,9.13
2022-10-05T12:03:36.626Z,8.52
2022-10-05T12:06:29.440Z,16.67
2022-10-05T12:09:15.195Z,6.18
2022-10-05T12:12:03.701Z,16.23
2022-10-05T12:15:03.129Z,8.80
2022-10-05T12:17:41.530Z,7.90
2022-10-05T12:20:20.901Z,5.25
2022-10-05T12:23:14.380Z,7.07
2022-10-05T12:26:04.233Z,7.60
2022-10-05T12:28:45.957Z,5.53
2022-10-05T12:31:37.968Z,5.72
2022-10-05T12:34:17.824Z,7.90
2022-10-05T12:37:04.177Z,5.72
2022-10-05T12:40:11.513Z,8.40
2022-10-05T12:43:04.940Z,7.72
2022-10-05T12:45:46.136Z,14.32
2022-10-05T12:48:44.540Z,6.15
2022-10-05T12:51:42.683Z,8.73
2022-10-05T12:54:34.227Z,8.07
2022-10-05T12:57:09.346Z,7.18
2022-10-05T12:59:47.010Z,7.90
2022-10-05T13:02:30.183Z,9.23
2022-10-05T13:05:09.815Z,7.68
2022-10-05T13:08:17.985Z,8.00
2022-10-05T13:11:02.088Z,6.90
2022-10-05T13:13:49.635Z,6.60
2022-10-05T13:18:56.725Z,5.18
2022-10-05T13:21:32.136Z,12.48
2022-10-05T13:24:29.884Z,6.72
2022-10-05T13:29:42.368Z,7.95
2022-10-05T13:32:39.748Z,6.40
2022-10-05T13:35:28.431Z,9.38
2022-10-05T13:38:20.796Z,7.45
2022-10-05T13:41:14.715Z,8.23
2022-10-05T13:43:45.074Z,6.90
2022-10-05T13:46:37.061Z,6.53
2022-10-05T13:49:29.605Z,6.28
2022-10-05T13:52:08.937Z,5.88
2022-10-05T13:55:06.670Z,11.23
2022-10-05T13:58:05.851Z,6.43
2022-10-05T14:00:54.472Z,6.63
2022-10-05T14:04:10.040Z,6.75
2022-10-05T14:06:38.919Z,6.90
2022-10-05T14:09:31.013Z,7.85
2022-10-05T14:12:04.197Z,6.97
2022-10-05T14:14:41.323Z,9.02
2022-10-05T14:17:32.116Z,12.48
2022-10-05T14:20:15.911Z,9.90
2022-10-05T14:22:45.663Z,11.98
2022-10-05T14:25:18.119Z,13.00
2022-10-05T14:27:49.959Z,9.50
2022-10-05T14:30:24.377Z,6.70
2022-10-05T14:32:56.575Z,7.88
2022-10-05T14:35:28.753Z,12.50
2022-10-05T14:38:02.483Z,8.05
2022-10-05T14:40:35.487Z,9.13
2022-10-05T14:43:14.852Z,9.57
2022-10-05T14:45:58.112Z,17.42
2022-10-05T14:48:28.110Z,7.72
2022-10-05T14:51:03.324Z,7.75
2022-10-05T14:54:00.578Z,13.52
2022-10-05T14:56:49.750Z,10.32
2022-10-05T14:59:29.170Z,9.30
2022-10-05T15:02:26.909Z,8.82
2022-10-05T15:04:59.814Z,14.88
2022-10-05T15:07:49.364Z,8.60
2022-10-05T15:10:35.265Z,10.27
2022-10-05T15:13:15.166Z,9.23
2022-10-05T15:15:44.965Z,8.00
2022-10-05T15:18:42.122Z,11.35
2022-10-05T15:21:34.379Z,7.33
2022-10-05T15:24:15.977Z,8.05
2022-10-05T15:26:55.541Z,10.43
2022-10-05T15:29:55.656Z,10.05
2022-10-05T15:32:43.397Z,8.82
2022-10-05T15:35:43.200Z,10.68
2022-10-05T15:38:29.223Z,7.82
2022-10-05T15:41:08.225Z,8.38
2022-10-05T15:43:55.264Z,10.05
2022-10-05T15:46:44.202Z,9.43
2022-10-05T15:49:29.407Z,9.18
2022-10-05T15:52:24.330Z,11.20
2022-10-05T15:55:14.707Z,8.35
2022-10-05T15:57:42.091Z,11.23
2022-10-05T16:00:17.298Z,11.10
2022-10-05T16:02:56.914Z,12.15
2022-10-05T16:05:57.723Z,10.68
2022-10-05T16:08:54.075Z,13.43
2022-10-05T16:11:36.729Z,13.25
2022-10-05T16:14:34.628Z,14.63
2022-10-05T16:17:26.669Z,9.95
2022-10-05T16:20:03.221Z,14.32
2022-10-05T16:22:49.177Z,10.90
2022-10-05T16:25:45.507Z,14.73
2022-10-05T16:28:29.288Z,10.13
2022-10-05T16:31:08.670Z,14.10
2022-10-05T16:33:46.636Z,13.25
2022-10-05T16:36:31.873Z,14.60
2022-10-05T16:39:11.785Z,17.58
2022-10-05T16:41:48.733Z,17.95
2022-10-05T16:44:27.849Z,15.77
2022-10-05T16:47:03.658Z,15.20
2022-10-05T16:49:55.043Z,15.45
2022-10-05T16:52:24.026Z,15.80
2022-10-05T16:55:02.979Z,16.13
2022-10-05T16:57:45.120Z,18.85
2022-10-05T17:01:11.491Z,16.00
2022-10-05T17:03:58.141Z,13.65
2022-10-05T17:06:37.312Z,21.60
2022-10-05T17:09:19.461Z,19.88
2022-10-05T17:11:57.241Z,21.88
2022-10-05T17:14:39.070Z,19.80
2022-10-05T17:17:27.841Z,17.92
2022-10-05T17:20:19.586Z,17.90
2022-10-05T17:22:55.086Z,14.02
2022-10-05T17:25:47.350Z,13.88
2022-10-05T17:28:48.411Z,16.02
2022-10-05T17:31:17.406Z,21.50
2022-10-05T17:34:10.553Z,21.20
2022-10-05T17:36:42.960Z,22.02
2022-10-05T17:39:20.433Z,18.77
2022-10-05T17:41:48.709Z,19.58
2022-10-05T17:44:34.165Z,15.45
2022-10-05T17:47:04.510Z,17.77
2022-10-05T17:50:13.317Z,16.92
2022-10-05T17:53:02.240Z,16.13
2022-10-05T17:55:45.880Z,16.67
2022-10-05T17:58:29.022Z,22.00
2022-10-05T18:01:00.756Z,17.23
2022-10-05T18:03:50.593Z,17.63
2022-10-05T18:06:31.343Z,14.40
2022-10-05T18:09:21.068Z,17.08
2022-10-05T18:12:32.574Z,17.85
2022-10-05T18:15:08.699Z,17.23
2022-10-05T18:17:45.365Z,18.30
2022-10-05T18:20:27.022Z,20.42
2022-10-05T18:23:25.568Z,21.70
2022-10-05T18:25:57.971Z,21.00
2022-10-05T18:28:28.537Z,20.45
2022-10-05T18:31:04.378Z,21.83
2022-10-05T18:33:41.256Z,18.30
2022-10-05T18:36:33.052Z,18.92
2022-10-05T18:39:47.031Z,23.88
2022-10-05T18:42:29.619Z,21.92
2022-10-05T18:45:15.571Z,17.77
2022-10-05T18:48:05.038Z,15.38
2022-10-05T18:50:52.676Z,21.77
2022-10-05T18:53:37.040Z,21.02
2022-10-05T18:56:19.263Z,20.45
2022-10-05T18:58:56.589Z,14.80
2022-10-05T19:01:56.721Z,19.13
2022-10-05T19:04:42.662Z,16.15
2022-10-05T19:07:50.937Z,14.07
2022-10-05T19:10:33.558Z,15.60
2022-10-05T19:13:37.723Z,15.23
2022-10-05T19:19:47.307Z,18.63
2022-10-05T19:22:19.959Z,18.05
2022-10-05T19:25:09.831Z,18.23
2022-10-05T19:27:58.840Z,17.33
2022-10-05T19:30:44.411Z,18.40
2022-10-05T19:33:33.607Z,17.38
2022-10-05T19:36:25.525Z,19.63
2022-10-05T19:39:03.572Z,20.25
2022-10-05T19:41:40.854Z,20.55
2022-10-05T19:44:28.522Z,15.57
2022-10-05T19:47:04.367Z,20.92
2022-10-05T19:49:59.139Z,19.40
2022-10-05T19:52:36.532Z,18.77
2022-10-05T19:55:26.443Z,17.30
2022-10-05T19:58:01.339Z,19.38
2022-10-05T20:00:35.353Z,18.73
2022-10-05T20:03:12.112Z,18.08
2022-10-05T20:05:40.430Z,17.75
2022-10-05T20:08:08.259Z,20.75
2022-10-05T20:10:35.784Z,16.70
2022-10-05T20:13:04.910Z,17.65
2022-10-05T20:15:53.727Z,15.52
2022-10-05T20:19:05.836Z,19.38
2022-10-05T20:21:51.594Z,21.30
2022-10-05T20:24:27.249Z,21.63
2022-10-05T20:27:05.797Z,16.77
2022-10-05T20:29:39.047Z,18.02
2022-10-05T20:32:12.202Z,17.45
2022-10-05T20:34:44.776Z,17.40
2022-10-05T20:37:16.954Z,18.08
2022-10-05T20:39:44.638Z,17.63
2022-10-05T20:42:11.881Z,18.77
2022-10-05T20:44:39.279Z,16.02
2022-10-05T20:47:09.617Z,17.50
2022-10-05T20:49:38.599Z,17.70
2022-10-05T20:52:06.984Z,18.83
2022-10-05T20:54:34.366Z,17.63
2022-10-05T20:57:02.441Z,19.45
2022-10-05T20:59:29.567Z,15.85
2022-10-05T21:01:58.215Z,20.98
2022-10-05T21:04:40.364Z,20.58
2022-10-05T21:07:08.276Z,18.13
2022-10-05T21:09:38.453Z,19.42
2022-10-05T21:12:05.909Z,16.20
2022-10-05T21:14:34.567Z,18.70
2022-10-05T21:17:02.288Z,21.95
2022-10-05T21:19:29.817Z,17.05
2022-10-05T21:22:02.491Z,19.30
2022-10-05T21:24:29.764Z,14.40
2022-10-05T21:26:57.725Z,18.77
2022-10-05T21:29:25.160Z,18.33
2022-10-05T21:31:52.558Z,18.45
2022-10-05T21:34:19.689Z,15.95
2022-10-05T21:36:47.040Z,15.68
2022-10-05T21:39:14.194Z,18.88
2022-10-05T21:41:41.358Z,17.50
2022-10-05T21:44:08.679Z,18.92
2022-10-05T21:46:37.084Z,18.45
2022-10-05T21:49:07.007Z,17.92
2022-10-05T21:51:35.612Z,17.48
2022-10-05T21:54:11.355Z,17.25
2022-10-05T21:56:43.255Z,15.93
2022-10-05T21:59:13.257Z,17.25
2022-10-05T22:01:40.715Z,14.95
2022-10-05T22:04:08.208Z,17.67
2022-10-05T22:06:36.342Z,15.30
2022-10-05T22:09:04.880Z,18.27
2022-10-05T22:11:33.041Z,19.10
2022-10-05T22:14:03.262Z,19.08
2022-10-05T22:16:34.993Z,17.05
2022-10-05T22:19:07.368Z,16.17
2022-10-05T22:21:41.646Z,16.85
2022-10-05T22:24:11.537Z,19.67
2022-10-05T22:26:41.479Z,16.75
2022-10-05T22:29:09.695Z,15.07
2022-10-05T22:31:37.740Z,14.50
2022-10-05T22:34:05.151Z,17.98
2022-10-05T22:36:35.232Z,16.73
2022-10-05T22:39:02.791Z,16.90
2022-10-05T22:41:30.203Z,16.73
2022-10-05T22:43:57.389Z,16.65
2022-10-05T22:46:24.977Z,16.05
2022-10-05T22:48:52.350Z,15.68
2022-10-05T22:51:19.663Z,16.10
2022-10-05T22:53:46.855Z,18.88
2022-10-05T22:56:15.333Z,20.92
2022-10-05T22:58:43.209Z,16.15
2022-10-05T23:01:13.863Z,17.33
2022-10-05T23:03:41.698Z,18.90
2022-10-05T23:06:12.053Z,15.88
2022-10-05T23:08:40.142Z,17.05
2022-10-05T23:11:10.901Z,18.10
2022-10-05T23:13:38.360Z,16.48
2022-10-05T23:16:08.240Z,16.45
2022-10-05T23:18:35.863Z,20.63
2022-10-05T23:21:03.435Z,15.77
2022-10-05T23:23:30.662Z,14.20
2022-10-05T23:26:01.839Z,19.48
2022-10-05T23:28:29.675Z,15.95
2022-10-05T23:31:06.126Z,17.00
2022-10-05T23:33:34.888Z,19.77
2022-10-05T23:36:08.083Z,15.27
2022-10-05T23:38:36.224Z,14.68
2022-10-05T23:41:04.752Z,16.27
2022-10-05T23:43:35.175Z,17.83
2022-10-05T23:46:04.402Z,20.60
2022-10-05T23:48:32.229Z,14.20
2022-10-05T23:51:00.419Z,16.65
2022-10-05T23:53:27.836Z,15.98
2022-10-05T23:55:55.457Z,13.57
2022-10-05T23:58:23.993Z,16.48
